Latest Weather Observations for Lochington

IDQ60801

Issued at 11:43 pm EST Friday 15 November 2019 (issued every 10 minutes, with the page automatically refreshed every 10 minutes)

About weather observations | Map of weather stations | Latest weather observations for QLD | Other Formats
Station Details ID: 035139 Name: LOCHINGTON Lat: -23.94 Lon: 147.53 Height: 267.19 m
Data from the previous 72 hours. | See also: Recent months at Lochington
Date/Time
EST
Temp
°C
App
Temp
°C
Dew
Point
°C
Rel
Hum
%
Delta-T
°C
Wind Press
QNH
hPa
Press
MSL
hPa
Rain since
9am
mm
Dir  Spd
km/h
Gust
km/h
Spd
kts
Gust
kts
15/11:30pm 26.5 25.2 14.9 49 7.1 NE 15 28 8 15 1013.6 1012.0 0.0
15/11:00pm 27.0 26.1 13.7 44 8.0 NE 11 17 6 9 1013.3 1011.6 0.0
15/10:30pm 27.9 25.6 13.1 40 8.8 NE 17 28 9 15 1013.2 1011.5 0.0
15/10:00pm 28.4 26.1 11.9 36 9.7 NE 15 22 8 12 1013.0 1011.3 0.0
15/09:30pm 28.3 26.4 10.5 33 10.2 NE 11 19 6 10 1012.5 1010.8 0.0
15/09:00pm 30.0 28.1 9.0 27 11.8 NE 9 17 5 9 1012.0 1010.4 0.0
15/08:30pm 30.4 28.8 8.7 26 12.2 NNE 7 9 4 5 1011.5 1009.9 0.0
15/08:00pm 30.4 28.7 8.2 25 12.4 NNE 7 9 4 5 1011.2 1009.6 0.0
15/07:30pm 32.0 30.3 7.6 22 13.6 NNE 6 7 3 4 1011.0 1009.4 0.0
15/07:00pm 32.3 30.4 6.5 20 14.1 NNE 6 7 3 4 1010.7 1009.1 0.0
15/06:30pm 32.9 30.7 5.5 18 14.8 WNW 6 9 3 5 1010.3 1008.7 0.0
15/06:00pm 35.0 32.1 4.5 15 16.4 NW 9 17 5 9 1009.9 1008.2 0.0
15/05:30pm 35.1 32.9 6.4 17 15.9 NNW 7 15 4 8 1009.5 1007.8 0.0
15/05:00pm 35.3 33.4 8.9 20 15.2 N 9 15 5 8 1009.4 1007.7 0.0
15/04:30pm 35.9 32.4 10.2 21 15.1 N 19 32 10 17 1009.3 1007.6 0.0
15/04:00pm 36.4 35.3 8.3 18 16.1 NW 4 15 2 8 1009.5 1007.8 0.0
15/03:30pm 36.1 34.7 8.8 19 15.7 WNW 6 20 3 11 1009.7 1008.0 0.0
15/03:00pm 35.7 33.9 9.3 20 15.3 N 9 17 5 9 1009.9 1008.2 0.0
15/02:30pm 35.5 33.8 9.8 21 15.0 N 9 20 5 11 1010.3 1008.7 0.0
15/02:00pm 34.9 32.3 9.3 21 14.8 NNW 13 20 7 11 1010.9 1009.3 0.0
15/01:30pm 34.3 32.7 10.2 23 14.1 NNW 9 17 5 9 1011.2 1009.6 0.0
15/01:00pm 34.8 33.7 10.6 23 14.3 NNW 7 15 4 8 1011.7 1010.1 0.0
15/12:30pm 34.7 32.8 10.5 23 14.2 NW 11 19 6 10 1012.1 1010.5 0.0
15/12:00pm 33.8 33.0 11.6 26 13.2 N 7 15 4 8 1012.7 1011.0 0.0
15/11:30am 33.0 32.1 12.6 29 12.3 N 9 19 5 10 1013.2 1011.5 0.0
15/11:00am 31.7 30.9 13.0 32 11.3 NE 9 17 5 9 1013.8 1012.2 0.0
15/10:30am 30.1 29.3 13.0 35 10.3 NNE 9 20 5 11 1014.2 1012.6 0.0
15/10:00am 29.8 29.2 13.5 36 9.8 NE 9 19 5 10 1014.5 1012.9 0.0
15/09:30am 28.6 28.7 14.4 41 8.7 NNE 7 17 4 9 1014.7 1013.1 0.0
15/09:00am 27.8 27.6 14.8 45 7.9 N 9 17 5 9 1014.9 1013.3 0.0
15/08:30am 27.0 27.0 15.1 48 7.3 NNE 9 19 5 10 1015.1 1013.5 0.0
15/08:00am 25.5 24.9 14.6 51 6.6 NE 11 22 6 12 1014.9 1013.3 0.0
15/07:30am 25.2 25.2 15.2 54 6.1 ENE 9 15 5 8 1014.8 1013.2 0.0
15/07:00am 24.1 24.1 15.1 57 5.4 ENE 9 17 5 9 1014.7 1013.1 0.0
15/06:30am 23.2 23.5 14.5 58 5.2 ENE 6 7 3 4 1014.4 1012.8 0.0
15/06:00am 21.7 21.6 13.3 59 4.9 ENE 6 7 3 4 1014.1 1012.5 0.0
15/05:30am 21.2 20.8 13.1 60 4.7 ENE 7 13 4 7 1013.6 1012.0 0.0
15/05:00am 21.4 20.3 13.1 59 4.8 E 11 13 6 7 1013.1 1011.4 0.0
15/04:30am 20.6 20.1 12.6 60 4.6 E 7 9 4 5 1012.6 1010.9 0.0
15/04:00am 21.3 20.5 13.0 59 4.8 E 9 11 5 6 1012.4 1010.7 0.0
15/03:30am 20.4 19.3 10.8 54 5.3 E 7 7 4 4 1012.4 1010.7 0.0
15/03:00am 20.9 20.2 10.1 50 5.9 ESE 4 6 2 3 1012.0 1010.4 0.0
15/02:30am 22.3 21.4 10.5 47 6.6 ENE 6 7 3 4 1012.0 1010.4 0.0
15/02:00am 22.7 21.6 10.5 46 6.8 E 7 11 4 6 1011.8 1010.2 0.0
15/01:30am 23.2 21.5 9.9 43 7.3 E 9 13 5 7 1011.7 1010.1 0.0
15/01:00am 23.8 21.2 9.4 40 7.9 ENE 13 17 7 9 1011.9 1010.3 0.0
15/12:30am 24.4 21.5 8.0 35 8.8 ENE 13 17 7 9 1012.1 1010.5 0.0
15/12:00am 24.9 21.6 4.6 27 10.3 ENE 11 20 6 11 1012.4 1010.7 0.0
 
Date/Time
EST
Temp
°C
App
Temp
°C
Dew
Point
°C
Rel
Hum
%
Delta-T
°C
Wind Press
QNH
hPa
Press
MSL
hPa
Rain since
9am
mm
Dir  Spd
km/h
Gust
km/h
Spd
kts
Gust
kts
14/11:30pm 23.8 20.5 2.6 25 10.3 ENE 9 15 5 8 1012.5 1010.8 0.0
14/11:00pm 22.1 20.8 4.2 31 8.8 CALM 0 4 0 2 1012.3 1010.6 0.0
14/10:30pm 21.6 20.3 4.2 32 8.6 CALM 0 0 0 0 1012.3 1010.6 0.0
14/10:00pm 22.7 20.8 2.8 27 9.6 E 2 4 1 2 1012.1 1010.5 0.0
14/09:30pm 24.3 21.6 2.5 24 10.6 E 6 7 3 4 1011.9 1010.3 0.0
14/09:00pm 25.2 23.1 2.0 22 11.3 W 2 4 1 2 1011.5 1009.9 0.0
14/08:30pm 24.8 23.1 1.7 22 11.1 CALM 0 0 0 0 1011.3 1009.7 0.0
14/08:00pm 26.9 25.0 0.6 18 12.6 CALM 0 2 0 1 1011.3 1009.7 0.0
14/07:30pm 28.1 25.7 -0.1 16 13.4 SSW 2 4 1 2 1011.2 1009.6 0.0
14/07:00pm 29.5 27.0 -0.8 14 14.4 SSW 2 4 1 2 1011.0 1009.4 0.0
14/06:30pm 31.2 28.2 -1.5 12 15.5 SW 4 6 2 3 1010.8 1009.2 0.0
14/06:00pm 32.7 29.4 -1.6 11 16.5 SW 6 7 3 4 1010.6 1009.0 0.0
14/05:30pm 33.8 30.8 -2.0 10 17.2 SW 4 9 2 5 1010.6 1009.0 0.0
14/05:00pm 34.1 30.7 -1.8 10 17.3 W 6 9 3 5 1010.5 1008.9 0.0
14/04:30pm 34.6 31.1 -1.4 10 17.5 W 7 11 4 6 1010.5 1008.9 0.0
14/04:00pm 34.3 30.9 -1.7 10 17.4 NW 6 11 3 6 1010.6 1009.0 0.0
14/03:30pm 34.3 30.8 -1.7 10 17.4 WSW 7 11 4 6 1010.8 1009.2 0.0
14/03:00pm 34.2 30.7 -1.7 10 17.4 W 7 11 4 6 1011.1 1009.5 0.0
14/02:30pm 33.9 30.3 -3.4 9 17.5 W 6 11 3 6 1011.4 1009.8 0.0
14/02:00pm 33.4 30.0 -2.3 10 17.0 SE 6 9 3 5 1011.9 1010.3 0.0
14/01:30pm 33.8 30.0 -3.5 9 17.5 NNE 7 15 4 8 1012.5 1010.8 0.0
14/01:00pm 33.0 28.6 -5.6 8 17.4 ESE 9 20 5 11 1013.0 1011.3 0.0
14/12:30pm 32.4 28.4 -6.0 8 17.1 SE 7 15 4 8 1013.4 1011.8 0.0
14/12:00pm 31.2 26.7 -6.9 8 16.5 E 9 17 5 9 1013.9 1012.3 0.0
14/11:30am 31.5 27.5 -5.2 9 16.4 E 7 22 4 12 1014.3 1012.7 0.0
14/11:00am 30.3 25.4 -7.6 8 16.1 ESE 11 24 6 13 1014.8 1013.2 0.0
14/10:30am 29.8 24.4 -8.0 8 15.9 ESE 13 20 7 11 1015.2 1013.6 0.0
14/10:00am 29.6 24.6 -8.1 8 15.8 SE 11 28 6 15 1015.7 1014.1 0.0
14/09:30am 29.0 23.0 -7.0 9 15.3 ESE 17 24 9 13 1015.9 1014.3 0.0
14/09:00am 28.0 22.7 -7.8 9 14.8 ESE 13 26 7 14 1016.2 1014.5 0.0
14/08:30am 27.0 20.8 -8.5 9 14.4 SE 17 24 9 13 1016.3 1014.6 0.0
14/08:00am 26.1 19.9 -9.2 9 14.0 ESE 17 28 9 15 1016.2 1014.5 0.0
14/07:30am 25.2 19.0 -8.5 10 13.4 ESE 17 24 9 13 1016.0 1014.4 0.0
14/07:00am 24.4 18.2 -9.1 10 13.1 ESE 17 24 9 13 1015.7 1014.1 0.0
14/06:30am 22.2 19.4 -0.5 22 10.3 ESE 4 6 2 3 1015.5 1013.9 0.0
14/06:27am 22.1 19.2 -1.2 21 10.4 ESE 4 6 2 3 1015.5 1013.9 0.0
14/06:00am 17.0 15.9 5.0 45 5.8 CALM 0 0 0 0 1015.1 1013.5 0.0
14/05:30am 19.3 15.5 -5.6 18 9.9 E 6 6 3 3 1014.4 1012.8 0.0
14/05:00am 18.1 15.8 -2.2 25 8.5 CALM 0 0 0 0 1014.1 1012.5 0.0
14/04:30am 18.9 16.8 -1.0 26 8.7 CALM 0 0 0 0 1013.7 1012.1 0.0
14/04:00am 19.4 16.7 -2.8 22 9.4 ESE 2 4 1 2 1013.4 1011.8 0.0
14/03:30am 18.6 17.4 4.4 39 6.9 CALM 0 2 0 1 1013.1 1011.4 0.0
14/03:00am 19.8 18.4 3.5 34 7.8 CALM 0 2 0 1 1012.9 1011.2 0.0
14/02:30am 20.4 19.0 3.6 33 8.1 CALM 0 0 0 0 1012.7 1011.0 0.0
14/02:00am 21.7 19.3 2.4 28 9.2 E 4 6 2 3 1012.8 1011.1 0.0
14/01:30am 23.6 21.3 3.0 26 10.1 ESE 4 6 2 3 1012.9 1011.2 0.0
14/01:00am 23.8 21.8 4.2 28 9.8 SE 4 6 2 3 1012.9 1011.2 0.0
14/12:30am 25.0 22.7 4.7 27 10.3 ESE 6 7 3 4 1013.0 1011.3 0.0
14/12:00am 25.7 23.9 5.3 27 10.5 SE 4 11 2 6 1013.0 1011.3 0.0
 
Date/Time
EST
Temp
°C
App
Temp
°C
Dew
Point
°C
Rel
Hum
%
Delta-T
°C
Wind Press
QNH
hPa
Press
MSL
hPa
Rain since
9am
mm
Dir  Spd
km/h
Gust
km/h
Spd
kts
Gust
kts
13/11:30pm 26.0 24.3 3.9 24 11.1 SSE 2 6 1 3 1012.6 1010.9 0.0
13/11:00pm 26.5 24.0 1.7 20 12.1 SW 4 6 2 3 1012.5 1010.8 0.0
13/10:30pm 27.9 25.1 2.2 19 12.7 S 6 15 3 8 1012.3 1010.6 0.0
13/10:00pm 28.7 24.4 1.3 17 13.4 S 13 20 7 11 1011.8 1010.2 0.0
13/09:30pm 28.9 25.4 1.4 17 13.5 SW 9 15 5 8 1011.6 1010.0 0.0
13/09:00pm 29.6 26.6 4.3 20 13.1 SSW 9 15 5 8 1011.2 1009.6 0.0
13/08:30pm 30.2 28.0 5.5 21 13.1 SSW 6 9 3 5 1010.8 1009.2 0.0
13/08:00pm 31.0 28.4 6.1 21 13.4 SW 9 17 5 9 1010.3 1008.7 0.0
13/07:30pm 30.1 29.3 6.7 23 12.7 CALM 0 2 0 1 1009.6 1007.9 0.0
13/07:00pm 31.5 30.1 7.2 22 13.4 NW 4 4 2 2 1009.3 1007.6 0.0
13/06:30pm 32.9 31.4 7.0 20 14.3 WNW 4 7 2 4 1009.1 1007.4 0.0
13/06:00pm 34.7 32.3 6.9 18 15.5 WNW 9 15 5 8 1009.0 1007.3 0.0
13/05:30pm 35.8 33.0 7.0 17 16.1 WNW 11 17 6 9 1008.9 1007.2 0.0
13/05:00pm 36.0 32.7 6.2 16 16.5 WSW 13 20 7 11 1008.8 1007.1 0.0
13/04:30pm 36.3 32.6 6.5 16 16.6 W 15 26 8 14 1008.9 1007.2 0.0
13/04:00pm 36.4 33.1 6.6 16 16.7 W 13 22 7 12 1009.0 1007.3 0.0
13/03:30pm 36.0 32.3 6.2 16 16.5 W 15 20 8 11 1009.2 1007.5 0.0
13/03:00pm 35.8 32.8 7.8 18 15.9 WNW 13 30 7 16 1009.6 1007.9 0.0
13/02:30pm 35.7 33.5 9.3 20 15.3 WSW 11 19 6 10 1010.1 1008.5 0.0
13/02:00pm 35.3 32.2 8.9 20 15.2 W 15 28 8 15 1010.8 1009.2 0.0
13/01:30pm 34.8 32.2 9.3 21 14.7 W 13 24 7 13 1011.3 1009.7 0.0
13/01:00pm 34.5 32.0 9.7 22 14.4 W 13 26 7 14 1011.9 1010.3 0.0
13/12:30pm 33.8 30.9 9.8 23 13.9 WSW 15 26 8 14 1012.4 1010.7 0.0
13/12:00pm 33.6 32.0 11.5 26 13.1 WNW 11 22 6 12 1013.0 1011.3 0.0
13/11:30am 32.4 30.1 10.4 26 12.8 WNW 13 26 7 14 1013.5 1011.9 0.0
13/11:00am 31.3 29.2 11.1 29 11.8 NW 13 24 7 13 1014.0 1012.4 0.0
13/10:30am 30.3 28.6 11.3 31 11.1 NW 11 24 6 13 1014.5 1012.9 0.0
13/10:00am 29.7 28.9 11.2 31 10.8 W 6 13 3 7 1014.9 1013.3 0.0
13/09:30am 28.9 27.5 11.0 33 10.3 NNW 9 15 5 8 1015.2 1013.6 0.0
13/09:00am 27.7 27.0 11.3 36 9.5 WSW 6 13 3 7 1015.6 1014.0 0.0
13/08:30am 26.8 25.9 11.3 38 8.9 W 7 15 4 8 1015.9 1014.3 0.0
13/08:00am 26.2 25.1 10.8 38 8.8 SSW 7 13 4 7 1015.8 1014.2 0.0
13/07:30am 25.3 23.7 8.7 35 9.1 S 7 15 4 8 1015.7 1014.1 0.0
13/07:00am 23.3 21.8 9.0 40 7.8 SW 7 13 4 7 1015.8 1014.2 0.0
13/06:30am 21.2 20.6 9.1 46 6.5 S 2 7 1 4 1015.0 1013.4 0.0
13/06:00am 18.9 18.1 8.0 49 5.7 SW 2 4 1 2 1014.0 1012.4 0.0
13/05:30am 19.0 17.9 7.1 46 6.1 WSW 2 4 1 2 1013.4 1011.8 0.0
13/05:00am 20.5 17.7 6.8 41 7.0 ENE 11 15 6 8 1012.9 1011.2 0.0
13/04:30am 21.5 19.0 6.6 38 7.7 NE 9 13 5 7 1012.6 1010.9 0.0
13/04:00am 21.7 18.8 6.4 37 7.9 ENE 11 15 6 8 1012.3 1010.6 0.0
13/03:30am 21.5 18.2 6.2 37 7.8 ENE 13 15 7 8 1012.0 1010.4 0.0
13/03:00am 21.6 18.7 6.3 37 7.8 ENE 11 13 6 7 1011.9 1010.3 0.0
13/02:30am 21.1 18.1 5.9 37 7.7 E 11 13 6 7 1011.8 1010.2 0.0
13/02:00am 21.7 18.2 5.6 35 8.2 ENE 13 15 7 8 1011.8 1010.2 0.0
13/01:30am 21.7 18.8 6.4 37 7.9 E 11 13 6 7 1011.9 1010.3 0.0
13/01:00am 23.2 20.8 6.9 35 8.5 ENE 9 13 5 7 1012.4 1010.7 0.0
13/12:30am 22.9 20.6 7.4 37 8.2 E 9 13 5 7 1012.7 1011.0 0.0
13/12:00am 23.5 21.5 7.2 35 8.6 E 7 9 4 5 1013.1 1011.4 0.0

Other formats

Comma delimited format used in spreadsheet applications
http://www.bom.gov.au/fwo/IDQ60801/IDQ60801.94399.axf

JavaScript Object Notation format (JSON) in row-major order
http://www.bom.gov.au/fwo/IDQ60801/IDQ60801.94399.json

Data quality

Most of these data are generated automatically and are frequently updated. Quality checks on data are not normally performed. It is possible for incorrect values to appear. Refer to information at About Latest Weather Observations and please check the disclaimer before using these data.